createdAt,value
2023-12-16T09:01:29.251Z,50.00
2023-12-16T09:02:06.754Z,50.00
2023-12-16T09:03:06.688Z,50.00
2023-12-16T09:04:06.725Z,50.00
2023-12-16T09:05:06.661Z,50.00
2023-12-16T09:06:06.676Z,50.00
2023-12-16T09:07:06.687Z,41.34
2023-12-16T09:08:06.641Z,28.42
2023-12-16T09:09:07.760Z,26.29
2023-12-16T09:10:06.677Z,25.28
2023-12-16T09:11:06.648Z,33.55
2023-12-16T09:12:06.654Z,40.32
2023-12-16T09:13:06.699Z,49.54
2023-12-16T09:14:06.685Z,50.73
2023-12-16T09:15:06.670Z,50.98
2023-12-16T09:16:06.720Z,50.00
2023-12-16T09:17:06.650Z,50.67
2023-12-16T09:18:07.256Z,50.00
2023-12-16T09:19:06.690Z,49.19
2023-12-16T09:20:07.022Z,51.33
2023-12-16T09:21:06.662Z,50.91
2023-12-16T09:22:06.738Z,51.00
2023-12-16T09:23:06.797Z,50.46
2023-12-16T09:24:06.875Z,51.20
2023-12-16T09:25:06.982Z,50.27
2023-12-16T09:26:07.011Z,51.11
2023-12-16T09:27:07.060Z,50.64
2023-12-16T09:28:07.198Z,51.79
2023-12-16T09:29:07.353Z,53.81
2023-12-16T09:30:07.334Z,50.96
2023-12-16T09:31:07.485Z,50.19
2023-12-16T09:32:14.794Z,50.00
2023-12-16T09:33:14.839Z,50.00
2023-12-16T09:34:14.817Z,50.00
2023-12-16T09:35:14.801Z,50.00
2023-12-16T09:36:15.838Z,50.00
2023-12-16T09:37:14.840Z,50.00
2023-12-16T09:38:14.786Z,53.29
2023-12-16T09:39:14.785Z,50.23
2023-12-16T09:40:14.861Z,50.00
2023-12-16T09:41:14.792Z,51.87
2023-12-16T09:42:14.795Z,50.06
2023-12-16T09:43:14.836Z,51.31
2023-12-16T09:44:14.788Z,52.90
2023-12-16T09:45:14.797Z,53.81
2023-12-16T09:46:14.845Z,53.94
2023-12-16T09:47:14.784Z,52.12
2023-12-16T09:48:14.879Z,51.44
2023-12-16T09:49:14.853Z,50.41
2023-12-16T09:50:14.785Z,51.06
2023-12-16T09:51:14.797Z,50.77
2023-12-16T09:52:14.841Z,50.47
2023-12-16T09:53:14.854Z,52.06
2023-12-16T09:54:14.835Z,52.52
2023-12-16T09:55:14.896Z,51.25
2023-12-16T09:56:14.856Z,51.59
2023-12-16T09:57:14.911Z,52.61
2023-12-16T09:58:14.992Z,52.71
2023-12-16T09:59:15.020Z,51.59
2023-12-16T10:00:15.118Z,50.31
2023-12-16T10:01:15.208Z,50.63
2023-12-16T10:02:15.248Z,52.73
2023-12-16T10:03:15.259Z,53.33
2023-12-16T10:04:15.272Z,51.07
2023-12-16T10:05:15.315Z,51.18
2023-12-16T10:06:15.348Z,51.46
2023-12-16T10:07:15.476Z,52.00
2023-12-16T10:08:15.421Z,51.11
2023-12-16T10:09:15.487Z,50.39
2023-12-16T10:10:15.546Z,50.88
2023-12-16T10:11:15.563Z,53.46
2023-12-16T10:12:15.558Z,51.78
2023-12-16T10:13:15.714Z,51.95
2023-12-16T10:14:15.668Z,50.77
2023-12-16T10:15:15.676Z,52.31
2023-12-16T10:16:15.762Z,52.10
2023-12-16T10:17:15.754Z,52.07
2023-12-16T10:18:15.889Z,52.79
2023-12-16T10:19:15.867Z,50.00
2023-12-16T10:20:15.838Z,53.48
2023-12-16T10:21:19.478Z,52.76
2023-12-16T10:22:17.042Z,52.84
2023-12-16T10:23:15.856Z,53.13
2023-12-16T10:24:15.872Z,52.49
2023-12-16T10:25:15.888Z,53.57
2023-12-16T10:26:15.891Z,53.32
2023-12-16T10:27:15.844Z,53.25
2023-12-16T10:28:15.893Z,53.17
2023-12-16T10:29:15.878Z,50.55
2023-12-16T10:30:15.877Z,52.43
2023-12-16T10:31:16.015Z,54.24
2023-12-16T10:32:15.915Z,56.12
2023-12-16T10:33:15.927Z,53.51
2023-12-16T10:34:15.910Z,55.26
2023-12-16T10:35:15.887Z,54.85
2023-12-16T10:36:15.915Z,55.27
2023-12-16T10:37:15.916Z,53.11
2023-12-16T10:38:15.882Z,51.88
2023-12-16T10:39:15.888Z,52.87
2023-12-16T10:40:16.127Z,55.95
2023-12-16T10:41:15.850Z,54.19
2023-12-16T10:42:15.856Z,51.60
2023-12-16T10:43:15.868Z,52.25
2023-12-16T10:44:15.862Z,53.56
2023-12-16T10:45:15.856Z,54.68
2023-12-16T10:46:15.940Z,58.45
2023-12-16T10:47:15.895Z,53.21
2023-12-16T10:48:15.960Z,56.88
2023-12-16T10:49:15.986Z,53.76
2023-12-16T10:50:15.912Z,56.27
2023-12-16T10:51:15.921Z,55.86
2023-12-16T10:52:15.985Z,55.54
2023-12-16T10:53:15.988Z,55.60
2023-12-16T10:54:15.974Z,56.23
2023-12-16T10:55:16.146Z,56.23
2023-12-16T10:56:16.076Z,55.21
2023-12-16T10:57:16.037Z,57.14
2023-12-16T10:58:16.078Z,53.81
2023-12-16T10:59:16.095Z,57.60
2023-12-16T11:00:16.078Z,53.04
2023-12-16T11:01:16.200Z,56.28
2023-12-16T11:02:16.106Z,57.07
2023-12-16T11:03:16.189Z,56.23
2023-12-16T11:04:16.217Z,59.17
2023-12-16T11:05:16.240Z,56.51
2023-12-16T11:06:16.216Z,59.72
2023-12-16T11:07:16.259Z,55.66
2023-12-16T11:08:16.220Z,56.13
2023-12-16T11:09:16.253Z,53.91
2023-12-16T11:10:16.249Z,53.83
2023-12-16T11:11:16.238Z,54.86
2023-12-16T11:12:16.285Z,55.04
2023-12-16T11:13:16.271Z,56.36
2023-12-16T11:14:16.285Z,52.84
2023-12-16T11:15:16.277Z,59.19
2023-12-16T11:16:16.337Z,57.50
2023-12-16T11:17:16.286Z,54.27
2023-12-16T11:18:16.386Z,53.54
2023-12-16T11:19:16.398Z,55.60
2023-12-16T11:20:16.354Z,55.83
2023-12-16T11:21:16.356Z,54.16
2023-12-16T11:22:16.446Z,54.99
2023-12-16T11:23:16.356Z,55.48
2023-12-16T11:24:16.381Z,55.92
2023-12-16T11:25:16.437Z,56.98
2023-12-16T11:26:16.463Z,56.87
2023-12-16T11:27:16.392Z,53.95
2023-12-16T11:28:16.431Z,57.69
2023-12-16T11:29:16.383Z,58.57
2023-12-16T11:30:16.475Z,57.57
2023-12-16T11:31:16.556Z,56.30
2023-12-16T11:32:16.477Z,59.95
2023-12-16T11:33:16.627Z,57.13
2023-12-16T11:34:16.630Z,58.32
2023-12-16T11:35:16.569Z,58.14
2023-12-16T11:36:16.585Z,58.50
2023-12-16T11:37:16.729Z,58.17
2023-12-16T11:38:16.683Z,56.07
2023-12-16T11:39:16.727Z,58.91
2023-12-16T11:40:16.771Z,59.48
2023-12-16T11:41:16.791Z,59.98
2023-12-16T11:42:16.846Z,60.36
2023-12-16T11:43:16.974Z,58.27
2023-12-16T11:44:16.976Z,61.45
2023-12-16T11:45:17.030Z,60.27
2023-12-16T11:46:17.114Z,59.13
2023-12-16T11:47:17.148Z,59.77
2023-12-16T11:48:17.378Z,59.64
2023-12-16T11:49:17.435Z,58.53
2023-12-16T11:50:17.352Z,57.27
2023-12-16T11:51:17.409Z,56.08
2023-12-16T11:52:17.501Z,59.79
2023-12-16T11:53:17.576Z,58.03
2023-12-16T11:54:17.600Z,59.12
2023-12-16T11:55:17.668Z,59.35
2023-12-16T11:56:17.697Z,57.97
2023-12-16T11:57:17.763Z,61.41
2023-12-16T11:58:17.817Z,58.83
2023-12-16T11:59:17.884Z,60.62
2023-12-16T12:00:17.920Z,59.44
2023-12-16T12:01:18.084Z,61.26
2023-12-16T12:02:17.984Z,61.36
2023-12-16T12:03:18.046Z,61.05
2023-12-16T12:04:18.142Z,63.00
2023-12-16T12:05:18.381Z,61.10
2023-12-16T12:06:18.188Z,63.42
2023-12-16T12:07:18.278Z,60.35
2023-12-16T12:08:18.265Z,60.72
2023-12-16T12:09:18.269Z,60.33
2023-12-16T12:10:18.389Z,58.68
2023-12-16T12:11:18.353Z,61.46
2023-12-16T12:12:18.431Z,58.38
2023-12-16T12:13:18.449Z,60.87
2023-12-16T12:14:18.514Z,59.85
2023-12-16T12:15:20.653Z,57.16
2023-12-16T12:16:18.596Z,57.31
2023-12-16T12:17:18.614Z,56.14
2023-12-16T12:18:18.704Z,55.62
2023-12-16T12:19:18.780Z,54.39
2023-12-16T12:20:18.709Z,59.54
2023-12-16T12:21:18.745Z,58.25
2023-12-16T12:22:18.742Z,60.05
2023-12-16T12:23:18.793Z,59.24
2023-12-16T12:24:18.818Z,56.82
2023-12-16T12:26:18.870Z,57.66
2023-12-16T12:27:18.895Z,54.70
2023-12-16T12:28:18.891Z,52.30
2023-12-16T12:29:18.921Z,55.89
2023-12-16T12:30:19.138Z,52.34
2023-12-16T12:31:18.989Z,53.33
2023-12-16T12:32:19.091Z,51.06
2023-12-16T12:33:19.091Z,53.08
2023-12-16T12:34:19.144Z,53.37
2023-12-16T12:35:19.155Z,52.39
2023-12-16T12:36:19.065Z,53.01
2023-12-16T12:37:19.064Z,53.07
2023-12-16T12:38:19.068Z,53.88
2023-12-16T12:39:19.069Z,51.72
2023-12-16T12:40:19.191Z,53.27
2023-12-16T12:41:19.070Z,53.06
2023-12-16T12:42:19.087Z,54.07
2023-12-16T12:43:19.103Z,54.39
2023-12-16T12:44:19.090Z,52.76
2023-12-16T12:45:19.172Z,52.59
2023-12-16T12:46:19.199Z,55.07
2023-12-16T12:47:19.187Z,51.38
2023-12-16T12:48:19.371Z,54.87
2023-12-16T12:49:19.436Z,55.65
2023-12-16T12:50:19.299Z,55.48
2023-12-16T12:51:19.362Z,53.55
2023-12-16T12:52:19.429Z,54.04
2023-12-16T12:53:23.524Z,53.07
2023-12-16T12:54:20.461Z,53.17
2023-12-16T12:55:19.446Z,53.40
2023-12-16T12:56:19.429Z,54.05
2023-12-16T12:57:19.444Z,55.44
2023-12-16T12:58:23.434Z,54.50
2023-12-16T12:59:58.166Z,53.28
2023-12-16T13:00:20.450Z,53.23
2023-12-16T13:01:19.563Z,53.73
2023-12-16T13:02:19.473Z,53.63
2023-12-16T13:03:19.580Z,56.77
2023-12-16T13:04:19.528Z,57.55
2023-12-16T13:05:19.522Z,55.96
2023-12-16T13:06:19.557Z,56.69
2023-12-16T13:07:19.447Z,55.12
2023-12-16T13:08:19.494Z,56.11
2023-12-16T13:09:19.541Z,56.79
2023-12-16T13:10:19.482Z,57.16
2023-12-16T13:11:19.470Z,54.56
2023-12-16T13:12:19.482Z,55.17
2023-12-16T13:13:19.464Z,57.95
2023-12-16T13:14:26.723Z,56.43
2023-12-16T13:15:20.529Z,56.46
2023-12-16T13:16:19.518Z,56.51
2023-12-16T13:17:19.542Z,56.52
2023-12-16T13:18:19.546Z,55.90
2023-12-16T13:19:19.645Z,56.09
2023-12-16T13:20:19.495Z,56.43
2023-12-16T13:21:19.596Z,57.70
2023-12-16T13:22:19.491Z,56.54
2023-12-16T13:23:19.512Z,56.92
2023-12-16T13:24:19.512Z,56.42
2023-12-16T13:25:19.512Z,57.18
2023-12-16T13:26:19.527Z,59.39
2023-12-16T13:27:19.542Z,57.91
2023-12-16T13:28:19.732Z,58.04
2023-12-16T13:29:19.606Z,57.07
2023-12-16T13:30:19.774Z,59.49
2023-12-16T13:31:19.698Z,57.13
2023-12-16T13:32:19.766Z,59.41
2023-12-16T13:33:19.788Z,60.23
2023-12-16T13:34:19.805Z,58.85
2023-12-16T13:35:19.735Z,60.84
2023-12-16T13:36:33.829Z,59.98
2023-12-16T13:37:20.790Z,60.05
2023-12-16T13:38:19.763Z,59.90
2023-12-16T13:39:19.787Z,60.19
2023-12-16T13:40:19.776Z,60.03
2023-12-16T13:41:19.769Z,58.52
2023-12-16T13:42:19.823Z,60.89
2023-12-16T13:43:19.772Z,57.61
2023-12-16T13:44:19.774Z,59.09
2023-12-16T13:45:19.812Z,60.06
2023-12-16T13:46:19.801Z,61.09
2023-12-16T13:47:19.771Z,60.78
2023-12-16T13:48:20.007Z,59.46
2023-12-16T13:49:19.909Z,61.87
2023-12-16T13:50:19.796Z,62.27
2023-12-16T13:51:19.842Z,60.17
2023-12-16T13:52:19.881Z,61.39
2023-12-16T13:53:19.791Z,62.61
2023-12-16T13:54:19.992Z,60.09
2023-12-16T13:55:19.792Z,61.51
2023-12-16T13:56:19.792Z,60.29
2023-12-16T13:57:19.778Z,62.38
2023-12-16T13:58:19.804Z,61.41
2023-12-16T13:59:19.821Z,60.23
2023-12-16T14:00:19.848Z,63.33
